createdAt,value
2023-08-02T00:00:43.315Z,97366.53
2023-08-02T00:03:30.685Z,97368.16
2023-08-02T00:06:00.032Z,97371.06
2023-08-02T00:08:27.838Z,97360.63
2023-08-02T00:10:55.451Z,97371.31
2023-08-02T00:13:22.791Z,97369.63
2023-08-02T00:15:52.095Z,97372.88
2023-08-02T00:18:19.723Z,97378.78
2023-08-02T00:20:48.348Z,97382.75
2023-08-02T00:23:15.829Z,97388.34
2023-08-02T00:25:43.597Z,97379.25
2023-08-02T00:28:11.006Z,97384.59
2023-08-02T00:30:46.362Z,97382.75
2023-08-02T00:33:14.059Z,97372.88
2023-08-02T00:35:45.818Z,97379.81
2023-08-02T00:38:14.373Z,97375.53
2023-08-02T00:40:42.699Z,97379.81
2023-08-02T00:43:10.046Z,97372.88
2023-08-02T00:45:38.010Z,97380.09
2023-08-02T00:48:05.780Z,97385.66
2023-08-02T00:50:36.449Z,97383.22
2023-08-02T00:53:04.162Z,97384.03
2023-08-02T00:55:31.957Z,97384.03
2023-08-02T00:58:00.512Z,97374.16
2023-08-02T01:00:29.057Z,97383.22
2023-08-02T01:02:56.632Z,97375.41
2023-08-02T01:05:29.347Z,97377.03
2023-08-02T01:08:02.750Z,97384.50
2023-08-02T01:10:34.880Z,97377.78
2023-08-02T01:13:07.116Z,97379.66
2023-08-02T01:15:35.588Z,97384.44
2023-08-02T01:18:03.313Z,97395.94
2023-08-02T01:20:30.961Z,97394.06
2023-08-02T01:22:58.400Z,97399.41
2023-08-02T01:25:29.668Z,97402.66
2023-08-02T01:28:03.460Z,97404.19
2023-08-02T01:30:37.215Z,97402.31
2023-08-02T01:33:05.616Z,97410.13
2023-08-02T01:35:34.709Z,97419.19
2023-08-02T01:38:02.598Z,97417.56
2023-08-02T01:40:30.225Z,97418.38
2023-08-02T01:42:57.849Z,97417.56
2023-08-02T01:45:25.576Z,97414.88
2023-08-02T01:47:53.053Z,97417.56
2023-08-02T01:50:20.668Z,97417.56
2023-08-02T01:52:50.241Z,97408.16
2023-08-02T01:55:19.175Z,97415.97
2023-08-02T01:57:46.589Z,97415.13
2023-08-02T02:00:14.382Z,97418.63
2023-08-02T02:02:41.925Z,97421.31
2023-08-02T02:05:09.668Z,97426.66
2023-08-02T02:07:37.037Z,97427.47
2023-08-02T02:10:04.945Z,97435.47
2023-08-02T02:12:32.291Z,97431.16
2023-08-02T02:14:59.901Z,97434.09
2023-08-02T02:17:27.391Z,97432.47
2023-08-02T02:19:55.032Z,97434.09
2023-08-02T02:22:22.409Z,97437.81
2023-08-02T02:24:50.039Z,97440.75
2023-08-02T02:27:17.368Z,97447.13
2023-08-02T02:29:45.002Z,97450.63
2023-08-02T02:32:12.419Z,97452.25
2023-08-02T02:34:40.022Z,97452.72
2023-08-02T02:37:07.906Z,97457.03
2023-08-02T02:39:35.558Z,97447.38
2023-08-02T02:42:03.209Z,97452.72
2023-08-02T02:44:42.372Z,97447.38
2023-08-02T02:47:11.174Z,97446.00
2023-08-02T02:49:38.797Z,97450.53
2023-08-02T02:52:06.756Z,97451.34
2023-08-02T02:54:34.407Z,97449.72
2023-08-02T02:57:02.023Z,97456.94
2023-08-02T02:59:29.662Z,97457.19
2023-08-02T03:01:57.021Z,97466.00
2023-08-02T03:04:24.652Z,97466.00
2023-08-02T03:06:52.619Z,97469.75
2023-08-02T03:09:20.550Z,97469.75
2023-08-02T03:11:47.895Z,97473.47
2023-08-02T03:14:15.525Z,97468.34
2023-08-02T03:16:45.974Z,97467.53
2023-08-02T03:19:14.099Z,97472.31
2023-08-02T03:21:41.475Z,97472.31
2023-08-02T03:24:09.102Z,97479.31
2023-08-02T03:26:36.481Z,97474.41
2023-08-02T03:29:04.064Z,97474.41
2023-08-02T03:31:31.425Z,97474.41
2023-08-02T03:33:59.061Z,97478.16
2023-08-02T03:36:26.433Z,97467.47
2023-08-02T03:38:54.015Z,97476.50
2023-08-02T03:41:21.389Z,97473.84
2023-08-02T03:43:49.097Z,97476.50
2023-08-02T03:46:16.440Z,97474.91
2023-08-02T03:48:44.093Z,97476.50
2023-08-02T03:51:11.473Z,97479.19
2023-08-02T03:53:39.076Z,97478.63
2023-08-02T03:56:06.461Z,97475.94
2023-08-02T03:58:34.074Z,97480.47
2023-08-02T04:01:01.489Z,97485.59
2023-08-02T04:03:29.113Z,97483.97
2023-08-02T04:05:56.696Z,97485.03
2023-08-02T04:08:23.976Z,97490.13
2023-08-02T04:10:51.564Z,97497.91
2023-08-02T04:13:18.894Z,97489.66
2023-08-02T04:15:49.398Z,97509.75
2023-08-02T04:18:16.720Z,97499.84
2023-08-02T04:20:44.430Z,97499.84
2023-08-02T04:23:11.817Z,97502.28
2023-08-02T04:25:39.416Z,97500.19
2023-08-02T04:28:07.716Z,97498.59
2023-08-02T04:30:35.339Z,97504.75
2023-08-02T04:33:02.755Z,97501.84
2023-08-02T04:35:30.691Z,97499.75
2023-08-02T04:37:58.067Z,97496.00
2023-08-02T04:40:25.654Z,97502.16
2023-08-02T04:42:55.070Z,97509.94
2023-08-02T04:45:22.870Z,97499.03
2023-08-02T04:47:50.259Z,97509.44
2023-08-02T04:50:18.000Z,97506.22
2023-08-02T04:52:45.340Z,97504.09
2023-08-02T04:55:12.943Z,97505.97
2023-08-02T04:57:40.304Z,97509.44
2023-08-02T05:00:08.357Z,97504.09
2023-08-02T05:02:37.529Z,97509.22
2023-08-02T05:05:05.637Z,97503.31
2023-08-02T05:07:34.470Z,97498.44
2023-08-02T05:10:05.539Z,97499.59
2023-08-02T05:12:39.174Z,97497.22
2023-08-02T05:15:07.671Z,97502.69
2023-08-02T05:17:35.082Z,97506.28
2023-08-02T05:20:02.881Z,97499.63
2023-08-02T05:22:32.308Z,97498.69
2023-08-02T05:25:00.015Z,97504.66
2023-08-02T05:27:27.423Z,97496.75
2023-08-02T05:29:55.053Z,97510.22
2023-08-02T05:32:22.411Z,97508.09
2023-08-02T05:34:50.049Z,97506.81
2023-08-02T05:37:18.431Z,97505.75
2023-08-02T05:39:46.082Z,97500.63
2023-08-02T05:42:13.435Z,97511.34
2023-08-02T05:44:41.066Z,97505.91
2023-08-02T05:47:08.455Z,97508.25
2023-08-02T05:49:36.113Z,97510.38
2023-08-02T05:52:03.634Z,97505.25
2023-08-02T05:54:31.233Z,97500.97
2023-08-02T05:56:58.653Z,97507.13
2023-08-02T05:59:29.124Z,97515.94
2023-08-02T06:01:56.551Z,97517.81
2023-08-02T06:04:24.224Z,97523.75
2023-08-02T06:06:51.868Z,97520.25
2023-08-02T06:09:19.549Z,97521.88
2023-08-02T06:11:46.902Z,97520.25
2023-08-02T06:14:14.679Z,97521.88
2023-08-02T06:16:42.021Z,97517.59
2023-08-02T06:19:09.720Z,97519.19
2023-08-02T06:21:37.737Z,97514.91
2023-08-02T06:24:05.520Z,97529.91
2023-08-02T06:26:33.278Z,97525.38
2023-08-02T06:29:01.837Z,97533.41
2023-08-02T06:31:29.303Z,97530.47
2023-08-02T06:33:56.909Z,97535.03
2023-08-02T06:36:24.407Z,97538.50
2023-08-02T06:38:52.119Z,97541.19
2023-08-02T06:41:19.491Z,97537.47
2023-08-02T06:43:47.939Z,97549.78
2023-08-02T06:46:15.359Z,97544.44
2023-08-02T06:48:43.001Z,97546.06
2023-08-02T06:51:13.673Z,97546.88
2023-08-02T06:53:41.417Z,97545.00
2023-08-02T06:56:16.662Z,97550.91
2023-08-02T06:58:45.147Z,97543.97
2023-08-02T07:01:20.798Z,97547.22
2023-08-02T07:03:49.783Z,97559.53
2023-08-02T07:06:19.108Z,97553.13
2023-08-02T07:08:47.638Z,97552.06
2023-08-02T07:11:26.067Z,97556.91
2023-08-02T07:13:59.174Z,97558.56
2023-08-02T07:16:26.597Z,97565.53
2023-08-02T07:18:54.340Z,97563.41
2023-08-02T07:21:21.819Z,97565.53
2023-08-02T07:23:49.517Z,97561.81
2023-08-02T07:26:16.899Z,97555.38
2023-08-02T07:28:44.671Z,97555.16
2023-08-02T07:31:13.929Z,97553.84
2023-08-02T07:33:41.990Z,97553.84
2023-08-02T07:36:17.692Z,97541.03
2023-08-02T07:38:46.060Z,97544.53
2023-08-02T07:41:14.051Z,97544.28
2023-08-02T07:43:41.831Z,97549.19
2023-08-02T07:46:20.000Z,97547.03
2023-08-02T07:48:48.494Z,97549.47
2023-08-02T07:51:15.821Z,97551.94
2023-08-02T07:53:43.473Z,97550.84
2023-08-02T07:56:10.862Z,97547.13
2023-08-02T07:58:38.572Z,97549.59
2023-08-02T08:01:10.670Z,97540.47
2023-08-02T08:03:38.871Z,97542.94
2023-08-02T08:06:14.518Z,97541.06
2023-08-02T08:08:43.450Z,97529.03
2023-08-02T08:11:10.959Z,97518.31
2023-08-02T08:13:38.756Z,97513.78
2023-08-02T08:16:06.341Z,97528.56
2023-08-02T08:18:34.422Z,97532.28
2023-08-02T08:21:03.068Z,97529.59
2023-08-02T08:23:31.796Z,97527.72
2023-08-02T08:25:59.172Z,97535.53
2023-08-02T08:28:27.082Z,97525.63
2023-08-02T08:31:05.443Z,97528.06
2023-08-02T08:33:33.582Z,97530.50
2023-08-02T08:36:01.026Z,97525.97
2023-08-02T08:38:28.737Z,97529.44
2023-08-02T08:40:57.277Z,97523.03
2023-08-02T08:43:29.499Z,97524.66
2023-08-02T08:45:58.216Z,97526.28
2023-08-02T08:48:27.936Z,97523.34
2023-08-02T08:50:57.170Z,97526.59
2023-08-02T08:53:35.689Z,97536.50
2023-08-02T08:56:05.655Z,97536.25
2023-08-02T08:58:34.767Z,97541.63
2023-08-02T09:01:04.965Z,97541.84
2023-08-02T09:03:36.134Z,97544.78
2023-08-02T09:06:05.285Z,97540.47
2023-08-02T09:08:45.187Z,97525.44
2023-08-02T09:11:13.049Z,97523.84
2023-08-02T09:13:40.818Z,97527.56
2023-08-02T09:16:09.769Z,97523.84
2023-08-02T09:18:44.946Z,97534.56
2023-08-02T09:21:16.027Z,97530.00
2023-08-02T09:23:57.392Z,97536.16
2023-08-02T09:26:25.039Z,97529.19
2023-08-02T09:29:04.442Z,97526.53
2023-08-02T09:31:34.285Z,97526.53
2023-08-02T09:34:02.415Z,97524.88
2023-08-02T09:36:31.767Z,97532.91
2023-08-02T09:39:16.854Z,97538.28
2023-08-02T09:41:59.163Z,97531.66
2023-08-02T09:44:29.732Z,97539.41
2023-08-02T09:47:08.825Z,97531.94
2023-08-02T09:49:36.632Z,97525.56
2023-08-02T09:52:04.252Z,97515.41
2023-08-02T09:54:32.346Z,97522.41
2023-08-02T09:57:02.506Z,97523.75
2023-08-02T09:59:31.486Z,97519.78
2023-08-02T10:02:00.192Z,97525.97
2023-08-02T10:04:28.675Z,97523.28
2023-08-02T10:07:09.356Z,97517.66
2023-08-02T10:09:38.143Z,97525.47
2023-08-02T10:12:12.591Z,97511.84
2023-08-02T10:14:40.520Z,97501.13
2023-08-02T10:17:08.656Z,97504.38
2023-08-02T10:19:36.821Z,97505.16
2023-08-02T10:22:05.574Z,97493.38
2023-08-02T10:24:33.603Z,97497.47
2023-08-02T10:27:07.510Z,97489.41
2023-08-02T10:29:36.254Z,97488.34
2023-08-02T10:32:13.864Z,97485.44
2023-08-02T10:34:41.597Z,97485.16
2023-08-02T10:37:09.106Z,97473.41
2023-08-02T10:39:49.049Z,97483.03
2023-08-02T10:42:18.819Z,97490.03
2023-08-02T10:44:56.237Z,97480.13
2023-08-02T10:47:27.326Z,97484.19
2023-08-02T10:49:56.220Z,97477.50
2023-08-02T10:52:26.588Z,97483.44
2023-08-02T10:55:06.420Z,97481.59
2023-08-02T10:57:33.877Z,97486.94
2023-08-02T11:00:13.135Z,97484.81
2023-08-02T11:02:50.958Z,97480.25
2023-08-02T11:05:41.518Z,97468.22
2023-08-02T11:08:09.505Z,97464.25
2023-08-02T11:10:53.870Z,97470.97
2023-08-02T11:13:22.503Z,97456.53
2023-08-02T11:16:06.347Z,97471.81
2023-08-02T11:18:38.175Z,97467.25
2023-08-02T11:21:10.813Z,97458.13
2023-08-02T11:23:39.479Z,97457.06
2023-08-02T11:26:26.698Z,97457.06
2023-08-02T11:28:54.903Z,97454.13
2023-08-02T11:31:27.369Z,97444.81
2023-08-02T11:33:54.923Z,97450.72
2023-08-02T11:36:23.489Z,97448.03
2023-08-02T11:38:51.061Z,97451.75
2023-08-02T11:41:23.046Z,97448.53
2023-08-02T11:43:51.142Z,97443.72
2023-08-02T11:46:26.193Z,97438.94
2023-08-02T11:48:55.191Z,97444.28
2023-08-02T11:51:23.364Z,97436.00
2023-08-02T11:54:01.069Z,97437.03
2023-08-02T11:56:29.527Z,97433.03
2023-08-02T11:58:57.337Z,97420.19
2023-08-02T12:01:25.659Z,97421.84
2023-08-02T12:04:00.100Z,97432.56
2023-08-02T12:06:44.501Z,97426.97
2023-08-02T12:09:12.137Z,97426.69
2023-08-02T12:11:39.914Z,97421.31
2023-08-02T12:14:07.501Z,97425.09
2023-08-02T12:16:44.044Z,97418.09
2023-08-02T12:19:12.286Z,97422.41
2023-08-02T12:21:40.242Z,97415.97
2023-08-02T12:24:17.706Z,97412.22
2023-08-02T12:26:46.192Z,97411.72
2023-08-02T12:29:23.295Z,97408.00
2023-08-02T12:31:54.542Z,97409.59
2023-08-02T12:34:26.820Z,97418.19
2023-08-02T12:36:55.493Z,97412.84
2023-08-02T12:39:23.702Z,97407.22
2023-08-02T12:41:51.631Z,97426.81
2023-08-02T12:44:19.022Z,97415.28
2023-08-02T12:46:46.681Z,97412.31
2023-08-02T12:49:14.110Z,97413.94
2023-08-02T12:51:41.684Z,97408.59
2023-08-02T12:54:09.071Z,97403.22
2023-08-02T12:56:36.724Z,97403.22
2023-08-02T12:59:04.058Z,97394.09
2023-08-02T13:01:33.088Z,97398.41
2023-08-02T13:04:02.127Z,97393.06
2023-08-02T13:06:29.938Z,97393.63
2023-08-02T13:08:57.377Z,97398.72
2023-08-02T13:11:25.144Z,97403.84
2023-08-02T13:13:52.509Z,97389.41
2023-08-02T13:16:20.138Z,97391.72
2023-08-02T13:18:47.565Z,97383.69
2023-08-02T13:21:15.215Z,97387.75
2023-08-02T13:23:42.700Z,97387.75
2023-08-02T13:26:10.307Z,97386.97
2023-08-02T13:28:38.092Z,97380.75
2023-08-02T13:31:05.750Z,97382.41
2023-08-02T13:33:33.113Z,97380.75
2023-08-02T13:36:00.686Z,97380.19
2023-08-02T13:38:28.128Z,97384.50
2023-08-02T13:40:56.642Z,97386.97
2023-08-02T13:43:26.406Z,97381.59
2023-08-02T13:45:54.140Z,97373.31
2023-08-02T13:48:21.653Z,97378.66
2023-08-02T13:50:50.094Z,97380.81
2023-08-02T13:53:17.449Z,97367.41
2023-08-02T13:55:45.060Z,97373.34
2023-08-02T13:58:13.668Z,97364.72
2023-08-02T14:00:41.262Z,97362.59
2023-08-02T14:03:08.819Z,97366.94
2023-08-02T14:05:36.945Z,97365.84
2023-08-02T14:08:04.561Z,97370.97
2023-08-02T14:10:32.190Z,97361.03
2023-08-02T14:12:59.881Z,97359.97
2023-08-02T14:15:27.580Z,97358.09
2023-08-02T14:17:54.950Z,97361.03
2023-08-02T14:20:22.540Z,97357.28
2023-08-02T14:22:49.919Z,97351.66
2023-08-02T14:25:17.535Z,97341.72
2023-08-02T14:27:44.888Z,97346.53
2023-08-02T14:30:12.619Z,97354.34
2023-08-02T14:32:40.299Z,97357.59
2023-08-02T14:35:08.183Z,97350.91
2023-08-02T14:37:35.520Z,97348.22
2023-08-02T14:40:03.134Z,97343.94
2023-08-02T14:42:30.481Z,97347.41
2023-08-02T14:44:58.091Z,97336.44
2023-08-02T14:47:25.441Z,97337.22
2023-08-02T14:49:53.079Z,97334.31
2023-08-02T14:52:20.410Z,97334.31
2023-08-02T14:54:48.210Z,97332.16
2023-08-02T14:57:15.600Z,97326.81
2023-08-02T14:59:43.287Z,97319.56
2023-08-02T15:02:10.964Z,97324.69
2023-08-02T15:04:38.627Z,97322.00
2023-08-02T15:07:06.016Z,97325.72
2023-08-02T15:09:33.627Z,97323.03
2023-08-02T15:12:01.243Z,97313.94
2023-08-02T15:14:28.844Z,97313.94
2023-08-02T15:16:57.000Z,97313.38
2023-08-02T15:19:25.008Z,97308.81
2023-08-02T15:21:52.445Z,97305.34
2023-08-02T15:24:20.118Z,97296.22
2023-08-02T15:26:47.472Z,97300.53
2023-08-02T15:29:15.170Z,97302.38
2023-08-02T15:31:44.926Z,97297.84
2023-08-02T15:34:12.604Z,97291.66
2023-08-02T15:36:40.000Z,97285.47
2023-08-02T15:39:07.893Z,97273.16
2023-08-02T15:41:35.272Z,97276.88
2023-08-02T15:44:03.780Z,97275.28
2023-08-02T15:46:31.504Z,97287.06
2023-08-02T15:48:59.110Z,97282.78
2023-08-02T15:51:26.589Z,97285.72
2023-08-02T15:53:54.207Z,97283.28
2023-08-02T15:56:21.648Z,97272.53
2023-08-02T15:58:49.250Z,97265.56
2023-08-02T16:01:16.661Z,97260.22
2023-08-02T16:03:44.340Z,97260.22
2023-08-02T16:06:12.084Z,97247.84
2023-08-02T16:08:39.908Z,97260.22
2023-08-02T16:11:07.750Z,97251.63
2023-08-02T16:13:35.351Z,97242.50
2023-08-02T16:16:02.782Z,97241.69
2023-08-02T16:18:30.430Z,97242.75
2023-08-02T16:20:57.863Z,97247.84
2023-08-02T16:23:25.482Z,97243.03
2023-08-02T16:25:52.935Z,97246.56
2023-08-02T16:28:20.587Z,97237.44
2023-08-02T16:30:47.949Z,97242.53
2023-08-02T16:33:16.275Z,97246.81
2023-08-02T16:35:45.404Z,97241.47
2023-08-02T16:38:15.978Z,97232.34
2023-08-02T16:40:46.653Z,97229.69
2023-08-02T16:43:14.318Z,97231.53
2023-08-02T16:45:41.823Z,97237.72
2023-08-02T16:48:09.517Z,97233.41
2023-08-02T16:50:37.703Z,97228.84
2023-08-02T16:53:05.339Z,97222.13
2023-08-02T16:55:32.752Z,97229.63
2023-08-02T16:58:00.546Z,97235.00
2023-08-02T17:00:27.945Z,97228.03
2023-08-02T17:02:55.674Z,97228.03
2023-08-02T17:05:23.227Z,97228.53
2023-08-02T17:07:51.412Z,97224.25
2023-08-02T17:10:18.745Z,97223.69
2023-08-02T17:12:46.380Z,97212.97
2023-08-02T17:15:13.731Z,97222.09
2023-08-02T17:17:41.351Z,97210.81
2023-08-02T17:20:11.123Z,97217.22
2023-08-02T17:22:38.764Z,97205.69
2023-08-02T17:25:06.229Z,97204.06
2023-08-02T17:27:33.872Z,97203.25
2023-08-02T17:30:01.218Z,97190.94
2023-08-02T17:32:29.007Z,97178.56
2023-08-02T17:34:56.751Z,97190.34
2023-08-02T17:37:24.408Z,97180.69
2023-08-02T17:39:55.681Z,97180.69
2023-08-02T17:42:23.507Z,97179.06
2023-08-02T17:44:50.873Z,97173.72
2023-08-02T17:47:18.986Z,97170.47
2023-08-02T17:49:46.433Z,97172.09
2023-08-02T17:52:14.148Z,97169.69
2023-08-02T17:54:41.507Z,97171.53
2023-08-02T17:57:09.104Z,97167.25
2023-08-02T17:59:36.454Z,97175.28
2023-08-02T18:02:06.406Z,97158.66
2023-08-02T18:04:33.799Z,97154.38
2023-08-02T18:07:01.427Z,97150.84
2023-08-02T18:09:28.743Z,97155.41
2023-08-02T18:11:56.352Z,97154.88
2023-08-02T18:14:23.709Z,97156.75
2023-08-02T18:16:51.459Z,97161.31
2023-08-02T18:19:18.816Z,97170.97
2023-08-02T18:21:51.761Z,97170.41
2023-08-02T18:24:20.532Z,97159.69
2023-08-02T18:26:49.085Z,97152.72
2023-08-02T18:29:16.497Z,97152.72
2023-08-02T18:31:44.470Z,97147.34
2023-08-02T18:34:12.738Z,97152.16
2023-08-02T18:36:40.468Z,97161.81
2023-08-02T18:39:09.178Z,97161.81
2023-08-02T18:41:36.947Z,97173.63
2023-08-02T18:44:04.465Z,97162.34
2023-08-02T18:46:32.273Z,97161.53
2023-08-02T18:48:59.607Z,97155.34
2023-08-02T18:51:27.269Z,97148.38
2023-08-02T18:53:54.724Z,97154.81
2023-08-02T18:56:23.796Z,97154.00
2023-08-02T18:58:52.436Z,97146.75
2023-08-02T19:01:20.276Z,97154.00
2023-08-02T19:03:47.793Z,97158.56
2023-08-02T19:06:15.598Z,97162.84
2023-08-02T19:08:45.611Z,97166.59
2023-08-02T19:11:21.346Z,97161.25
2023-08-02T19:13:49.413Z,97158.56
2023-08-02T19:16:17.268Z,97155.06
2023-08-02T19:18:44.929Z,97171.16
2023-08-02T19:21:14.500Z,97167.66
2023-08-02T19:23:46.351Z,97164.97
2023-08-02T19:26:17.510Z,97170.34
2023-08-02T19:28:45.666Z,97157.22
2023-08-02T19:31:15.045Z,97150.50
2023-08-02T19:33:46.183Z,97152.09
2023-08-02T19:36:18.888Z,97153.19
2023-08-02T19:38:46.504Z,97153.19
2023-08-02T19:41:24.841Z,97153.19
2023-08-02T19:43:52.247Z,97160.13
2023-08-02T19:46:21.947Z,97165.50
2023-08-02T19:48:49.434Z,97169.25
2023-08-02T19:51:17.557Z,97166.81
2023-08-02T19:53:46.001Z,97166.03
2023-08-02T19:56:22.393Z,97173.78
2023-08-02T19:58:50.153Z,97160.66
2023-08-02T20:01:18.017Z,97156.91
2023-08-02T20:03:45.463Z,97149.94
2023-08-02T20:06:13.575Z,97142.94
2023-08-02T20:08:41.614Z,97136.78
2023-08-02T20:11:09.425Z,97142.94
2023-08-02T20:13:40.120Z,97148.31
2023-08-02T20:16:13.574Z,97137.59
2023-08-02T20:18:41.465Z,97136.00
2023-08-02T20:23:43.948Z,97137.03
2023-08-02T20:26:12.528Z,97135.16
2023-08-02T20:28:41.942Z,97128.19
2023-08-02T20:31:19.661Z,97127.91
2023-08-02T20:33:49.126Z,97128.44
2023-08-02T20:36:18.401Z,97136.50
2023-08-02T20:38:48.611Z,97127.91
2023-08-02T20:41:21.196Z,97126.28
2023-08-02T20:43:50.218Z,97129.78
2023-08-02T20:46:22.932Z,97130.31
2023-08-02T20:48:56.215Z,97126.78
2023-08-02T20:51:24.006Z,97131.34
2023-08-02T20:53:51.459Z,97127.88
2023-08-02T20:56:24.257Z,97126.78
2023-08-02T20:58:52.181Z,97130.31
2023-08-02T21:01:19.969Z,97121.44
2023-08-02T21:03:48.405Z,97116.06
2023-08-02T21:06:16.989Z,97124.94
2023-08-02T21:08:48.403Z,97128.44
2023-08-02T21:11:16.065Z,97119.84
2023-08-02T21:13:43.397Z,97124.63
2023-08-02T21:16:14.807Z,97127.31
2023-08-02T21:18:44.064Z,97125.72
2023-08-02T21:21:13.931Z,97122.50
2023-08-02T21:23:44.693Z,97125.16
2023-08-02T21:26:18.396Z,97128.09
2023-08-02T21:28:45.895Z,97131.56
2023-08-02T21:31:16.670Z,97131.03
2023-08-02T21:33:45.032Z,97122.19
2023-08-02T21:36:18.428Z,97132.91
2023-08-02T21:38:45.874Z,97127.78
2023-08-02T21:41:13.551Z,97135.03
2023-08-02T21:43:43.214Z,97133.44
2023-08-02T21:46:13.748Z,97134.22
2023-08-02T21:48:49.840Z,97137.97
2023-08-02T21:51:20.506Z,97132.59
2023-08-02T21:53:49.636Z,97123.22
2023-08-02T21:56:22.811Z,97133.13
2023-08-02T21:59:09.773Z,97135.81
2023-08-02T22:01:37.410Z,97130.69
2023-08-02T22:04:06.944Z,97126.13
2023-08-02T22:06:35.054Z,97128.00
2023-08-02T22:09:02.512Z,97130.97
2023-08-02T22:11:30.159Z,97132.00
2023-08-02T22:13:57.638Z,97121.31
2023-08-02T22:16:25.335Z,97125.06
2023-08-02T22:18:52.957Z,97125.06
2023-08-02T22:21:22.363Z,97122.38
2023-08-02T22:23:50.164Z,97129.88
2023-08-02T22:26:17.926Z,97124.50
2023-08-02T22:28:45.270Z,97115.91
2023-08-02T22:31:13.002Z,97111.59
2023-08-02T22:33:40.399Z,97115.38
2023-08-02T22:36:08.027Z,97110.81
2023-08-02T22:41:05.873Z,97116.16
2023-08-02T22:43:33.229Z,97099.28
2023-08-02T22:46:01.030Z,97104.66
2023-08-02T22:50:59.166Z,97093.94
2023-08-02T22:53:26.644Z,97095.53
2023-08-02T22:55:54.305Z,97100.88
2023-08-02T22:58:21.705Z,97100.88
2023-08-02T23:00:49.420Z,97102.22
2023-08-02T23:03:36.569Z,97116.41
2023-08-02T23:06:05.479Z,97113.72
2023-08-02T23:08:37.540Z,97112.94
2023-08-02T23:11:06.621Z,97114.00
2023-08-02T23:13:34.175Z,97110.50
2023-08-02T23:16:03.084Z,97105.13
2023-08-02T23:18:30.843Z,97105.13
2023-08-02T23:21:02.852Z,97096.06
2023-08-02T23:23:32.854Z,97101.41
2023-08-02T23:26:03.744Z,97094.44
2023-08-02T23:28:33.161Z,97097.94
2023-08-02T23:31:06.367Z,97103.53
2023-08-02T23:33:33.797Z,97103.53
2023-08-02T23:36:01.508Z,97105.13
2023-08-02T23:38:28.914Z,97107.25
2023-08-02T23:40:57.795Z,97109.94
2023-08-02T23:43:25.447Z,97096.56
2023-08-02T23:45:53.247Z,97091.19
2023-08-02T23:48:20.608Z,97096.56
2023-08-02T23:50:48.216Z,97096.56
2023-08-02T23:53:15.584Z,97088.78
2023-08-02T23:55:43.435Z,97090.91
2023-08-02T23:58:10.797Z,97096.00
